sensor_id;sensor_type;location;lat;lon;timestamp;P1;durP1;ratioP1;P2;durP2;ratioP2
33987;SDS011;37428;53.580;-1.666;2022-11-03T00:00:58;14.77;;;3.17;;
33987;SDS011;37428;53.580;-1.666;2022-11-03T00:04:01;24.58;;;3.38;;
33987;SDS011;37428;53.580;-1.666;2022-11-03T00:07:03;15.88;;;2.78;;
33987;SDS011;37428;53.580;-1.666;2022-11-03T00:10:07;15.77;;;2.42;;
33987;SDS011;37428;53.580;-1.666;2022-11-03T00:13:14;22.17;;;3.85;;
33987;SDS011;37428;53.580;-1.666;2022-11-03T00:16:16;16.30;;;2.92;;
33987;SDS011;37428;53.580;-1.666;2022-11-03T00:19:18;10.88;;;2.55;;
33987;SDS011;37428;53.580;-1.666;2022-11-03T00:22:21;12.88;;;2.55;;
33987;SDS011;37428;53.580;-1.666;2022-11-03T00:25:23;13.68;;;2.75;;
33987;SDS011;37428;53.580;-1.666;2022-11-03T00:28:26;10.23;;;1.52;;
33987;SDS011;37428;53.580;-1.666;2022-11-03T00:31:32;13.23;;;2.55;;
33987;SDS011;37428;53.580;-1.666;2022-11-03T00:34:35;16.70;;;2.92;;
33987;SDS011;37428;53.580;-1.666;2022-11-03T00:37:37;11.32;;;2.58;;
33987;SDS011;37428;53.580;-1.666;2022-11-03T00:40:41;17.55;;;2.67;;
33987;SDS011;37428;53.580;-1.666;2022-11-03T00:43:47;16.30;;;2.65;;
33987;SDS011;37428;53.580;-1.666;2022-11-03T00:46:53;19.40;;;2.70;;
33987;SDS011;37428;53.580;-1.666;2022-11-03T00:49:57;21.73;;;2.42;;
33987;SDS011;37428;53.580;-1.666;2022-11-03T00:52:59;19.55;;;4.10;;
33987;SDS011;37428;53.580;-1.666;2022-11-03T00:56:02;12.88;;;1.98;;
33987;SDS011;37428;53.580;-1.666;2022-11-03T00:59:07;13.85;;;2.00;;
33987;SDS011;37428;53.580;-1.666;2022-11-03T01:02:10;12.73;;;2.05;;
33987;SDS011;37428;53.580;-1.666;2022-11-03T01:05:12;17.38;;;2.67;;
33987;SDS011;37428;53.580;-1.666;2022-11-03T01:08:32;13.85;;;2.65;;
33987;SDS011;37428;53.580;-1.666;2022-11-03T01:11:34;11.27;;;2.50;;
33987;SDS011;37428;53.580;-1.666;2022-11-03T01:14:49;17.30;;;2.40;;
33987;SDS011;37428;53.580;-1.666;2022-11-03T01:17:52;11.85;;;2.10;;
33987;SDS011;37428;53.580;-1.666;2022-11-03T01:20:54;12.68;;;1.80;;
33987;SDS011;37428;53.580;-1.666;2022-11-03T01:23:58;8.90;;;2.25;;
33987;SDS011;37428;53.580;-1.666;2022-11-03T01:27:02;22.50;;;2.78;;
33987;SDS011;37428;53.580;-1.666;2022-11-03T01:30:09;18.35;;;2.50;;
33987;SDS011;37428;53.580;-1.666;2022-11-03T01:33:12;17.67;;;2.22;;
33987;SDS011;37428;53.580;-1.666;2022-11-03T01:36:14;15.35;;;2.58;;
33987;SDS011;37428;53.580;-1.666;2022-11-03T01:39:17;8.77;;;1.90;;
33987;SDS011;37428;53.580;-1.666;2022-11-03T01:42:21;7.05;;;1.60;;
33987;SDS011;37428;53.580;-1.666;2022-11-03T01:45:27;12.02;;;2.78;;
33987;SDS011;37428;53.580;-1.666;2022-11-03T01:48:31;12.63;;;2.95;;
33987;SDS011;37428;53.580;-1.666;2022-11-03T01:51:36;14.40;;;2.35;;
33987;SDS011;37428;53.580;-1.666;2022-11-03T01:54:39;11.35;;;2.03;;
33987;SDS011;37428;53.580;-1.666;2022-11-03T01:57:47;14.07;;;2.05;;
33987;SDS011;37428;53.580;-1.666;2022-11-03T02:00:56;13.68;;;2.10;;
33987;SDS011;37428;53.580;-1.666;2022-11-03T02:04:02;11.68;;;1.88;;
33987;SDS011;37428;53.580;-1.666;2022-11-03T02:07:11;12.98;;;2.05;;
33987;SDS011;37428;53.580;-1.666;2022-11-03T02:10:17;9.07;;;2.05;;
33987;SDS011;37428;53.580;-1.666;2022-11-03T02:16:25;8.38;;;2.58;;
33987;SDS011;37428;53.580;-1.666;2022-11-03T02:19:31;12.52;;;2.20;;
33987;SDS011;37428;53.580;-1.666;2022-11-03T02:22:52;9.63;;;1.60;;
33987;SDS011;37428;53.580;-1.666;2022-11-03T02:26:11;12.55;;;2.00;;
33987;SDS011;37428;53.580;-1.666;2022-11-03T02:29:15;13.23;;;2.25;;
33987;SDS011;37428;53.580;-1.666;2022-11-03T02:32:19;10.18;;;1.30;;
33987;SDS011;37428;53.580;-1.666;2022-11-03T02:35:23;11.50;;;3.17;;
33987;SDS011;37428;53.580;-1.666;2022-11-03T02:38:31;9.30;;;1.98;;
33987;SDS011;37428;53.580;-1.666;2022-11-03T02:41:41;18.02;;;2.47;;
33987;SDS011;37428;53.580;-1.666;2022-11-03T02:44:45;14.25;;;2.33;;
33987;SDS011;37428;53.580;-1.666;2022-11-03T02:47:48;10.27;;;2.15;;
33987;SDS011;37428;53.580;-1.666;2022-11-03T02:50:54;11.30;;;1.92;;
33987;SDS011;37428;53.580;-1.666;2022-11-03T02:53:59;14.40;;;2.42;;
33987;SDS011;37428;53.580;-1.666;2022-11-03T02:57:08;14.88;;;3.60;;
33987;SDS011;37428;53.580;-1.666;2022-11-03T03:00:18;10.07;;;2.45;;
33987;SDS011;37428;53.580;-1.666;2022-11-03T03:03:21;10.25;;;1.80;;
33987;SDS011;37428;53.580;-1.666;2022-11-03T03:06:27;7.57;;;1.35;;
33987;SDS011;37428;53.580;-1.666;2022-11-03T03:09:36;9.07;;;2.40;;
33987;SDS011;37428;53.580;-1.666;2022-11-03T03:12:46;11.48;;;1.50;;
33987;SDS011;37428;53.580;-1.666;2022-11-03T03:15:55;9.10;;;1.52;;
33987;SDS011;37428;53.580;-1.666;2022-11-03T03:19:06;9.23;;;1.55;;
33987;SDS011;37428;53.580;-1.666;2022-11-03T03:22:19;10.80;;;2.20;;
33987;SDS011;37428;53.580;-1.666;2022-11-03T03:25:31;11.98;;;1.83;;
33987;SDS011;37428;53.580;-1.666;2022-11-03T03:28:39;9.25;;;1.70;;
33987;SDS011;37428;53.580;-1.666;2022-11-03T03:31:48;11.02;;;2.35;;
33987;SDS011;37428;53.580;-1.666;2022-11-03T03:34:55;8.30;;;1.60;;
33987;SDS011;37428;53.580;-1.666;2022-11-03T03:38:04;12.63;;;1.70;;
33987;SDS011;37428;53.580;-1.666;2022-11-03T03:41:12;6.75;;;1.98;;
33987;SDS011;37428;53.580;-1.666;2022-11-03T03:44:35;9.77;;;1.83;;
33987;SDS011;37428;53.580;-1.666;2022-11-03T03:47:40;14.13;;;1.98;;
33987;SDS011;37428;53.580;-1.666;2022-11-03T03:50:43;11.75;;;2.50;;
33987;SDS011;37428;53.580;-1.666;2022-11-03T03:53:48;7.20;;;1.48;;
33987;SDS011;37428;53.580;-1.666;2022-11-03T03:57:02;11.68;;;1.40;;
33987;SDS011;37428;53.580;-1.666;2022-11-03T04:03:29;5.32;;;1.27;;
33987;SDS011;37428;53.580;-1.666;2022-11-03T04:06:33;9.55;;;1.38;;
33987;SDS011;37428;53.580;-1.666;2022-11-03T04:09:36;9.55;;;1.30;;
33987;SDS011;37428;53.580;-1.666;2022-11-03T04:12:42;5.05;;;1.33;;
33987;SDS011;37428;53.580;-1.666;2022-11-03T04:16:07;10.25;;;1.40;;
33987;SDS011;37428;53.580;-1.666;2022-11-03T04:19:26;13.40;;;1.98;;
33987;SDS011;37428;53.580;-1.666;2022-11-03T04:22:46;18.73;;;2.47;;
33987;SDS011;37428;53.580;-1.666;2022-11-03T04:25:49;19.00;;;2.90;;
33987;SDS011;37428;53.580;-1.666;2022-11-03T04:28:54;13.48;;;2.20;;
33987;SDS011;37428;53.580;-1.666;2022-11-03T04:31:59;16.10;;;2.00;;
33987;SDS011;37428;53.580;-1.666;2022-11-03T04:35:08;10.60;;;2.00;;
33987;SDS011;37428;53.580;-1.666;2022-11-03T04:38:19;13.98;;;2.25;;
33987;SDS011;37428;53.580;-1.666;2022-11-03T04:41:28;9.32;;;2.90;;
33987;SDS011;37428;53.580;-1.666;2022-11-03T04:44:38;10.70;;;1.60;;
33987;SDS011;37428;53.580;-1.666;2022-11-03T04:47:42;9.43;;;1.73;;
33987;SDS011;37428;53.580;-1.666;2022-11-03T04:50:48;13.70;;;2.10;;
33987;SDS011;37428;53.580;-1.666;2022-11-03T04:53:54;11.23;;;2.65;;
33987;SDS011;37428;53.580;-1.666;2022-11-03T04:57:01;9.23;;;2.05;;
33987;SDS011;37428;53.580;-1.666;2022-11-03T05:00:14;11.50;;;1.88;;
33987;SDS011;37428;53.580;-1.666;2022-11-03T05:03:24;15.82;;;1.67;;
33987;SDS011;37428;53.580;-1.666;2022-11-03T05:06:28;12.98;;;1.55;;
33987;SDS011;37428;53.580;-1.666;2022-11-03T05:09:30;14.48;;;2.25;;
33987;SDS011;37428;53.580;-1.666;2022-11-03T05:12:34;15.93;;;1.95;;
33987;SDS011;37428;53.580;-1.666;2022-11-03T05:15:39;14.80;;;2.20;;
33987;SDS011;37428;53.580;-1.666;2022-11-03T05:18:47;11.60;;;2.75;;
33987;SDS011;37428;53.580;-1.666;2022-11-03T05:21:51;16.27;;;2.72;;
33987;SDS011;37428;53.580;-1.666;2022-11-03T05:25:33;17.52;;;2.50;;
33987;SDS011;37428;53.580;-1.666;2022-11-03T05:28:35;14.00;;;2.30;;
33987;SDS011;37428;53.580;-1.666;2022-11-03T05:31:40;14.88;;;2.22;;
33987;SDS011;37428;53.580;-1.666;2022-11-03T05:34:53;15.60;;;2.17;;
33987;SDS011;37428;53.580;-1.666;2022-11-03T05:37:56;13.20;;;2.15;;
33987;SDS011;37428;53.580;-1.666;2022-11-03T05:40:58;14.93;;;2.42;;
33987;SDS011;37428;53.580;-1.666;2022-11-03T05:44:10;18.27;;;2.60;;
33987;SDS011;37428;53.580;-1.666;2022-11-03T05:47:28;7.95;;;1.70;;
33987;SDS011;37428;53.580;-1.666;2022-11-03T05:50:48;17.38;;;3.00;;
33987;SDS011;37428;53.580;-1.666;2022-11-03T05:57:07;16.67;;;2.88;;
33987;SDS011;37428;53.580;-1.666;2022-11-03T06:00:36;18.60;;;2.10;;
33987;SDS011;37428;53.580;-1.666;2022-11-03T06:03:43;19.02;;;2.40;;
33987;SDS011;37428;53.580;-1.666;2022-11-03T06:06:49;12.07;;;2.72;;
33987;SDS011;37428;53.580;-1.666;2022-11-03T06:09:54;12.88;;;2.53;;
33987;SDS011;37428;53.580;-1.666;2022-11-03T06:12:59;10.98;;;2.38;;
33987;SDS011;37428;53.580;-1.666;2022-11-03T06:16:10;16.63;;;2.85;;
33987;SDS011;37428;53.580;-1.666;2022-11-03T06:19:39;14.73;;;2.42;;
33987;SDS011;37428;53.580;-1.666;2022-11-03T06:26:04;10.20;;;2.70;;
33987;SDS011;37428;53.580;-1.666;2022-11-03T06:29:15;14.40;;;2.78;;
33987;SDS011;37428;53.580;-1.666;2022-11-03T06:32:24;14.73;;;2.85;;
33987;SDS011;37428;53.580;-1.666;2022-11-03T06:35:27;14.80;;;3.30;;
33987;SDS011;37428;53.580;-1.666;2022-11-03T06:38:35;13.18;;;2.38;;
33987;SDS011;37428;53.580;-1.666;2022-11-03T06:41:43;15.27;;;3.28;;
33987;SDS011;37428;53.580;-1.666;2022-11-03T06:44:46;19.55;;;3.05;;
33987;SDS011;37428;53.580;-1.666;2022-11-03T06:47:51;16.17;;;3.38;;
33987;SDS011;37428;53.580;-1.666;2022-11-03T06:50:54;10.52;;;2.13;;
33987;SDS011;37428;53.580;-1.666;2022-11-03T06:54:07;21.27;;;3.70;;
33987;SDS011;37428;53.580;-1.666;2022-11-03T06:57:11;16.20;;;2.63;;
33987;SDS011;37428;53.580;-1.666;2022-11-03T07:00:21;13.65;;;3.92;;
33987;SDS011;37428;53.580;-1.666;2022-11-03T07:03:31;18.92;;;3.15;;
33987;SDS011;37428;53.580;-1.666;2022-11-03T07:06:37;15.40;;;2.70;;
33987;SDS011;37428;53.580;-1.666;2022-11-03T07:09:45;24.13;;;5.88;;
33987;SDS011;37428;53.580;-1.666;2022-11-03T07:12:51;21.80;;;2.83;;
33987;SDS011;37428;53.580;-1.666;2022-11-03T07:16:08;21.52;;;2.95;;
33987;SDS011;37428;53.580;-1.666;2022-11-03T07:19:32;16.95;;;3.80;;
33987;SDS011;37428;53.580;-1.666;2022-11-03T07:22:38;27.08;;;4.65;;
33987;SDS011;37428;53.580;-1.666;2022-11-03T07:25:44;52.78;;;21.83;;
33987;SDS011;37428;53.580;-1.666;2022-11-03T07:28:52;181.63;;;103.80;;
33987;SDS011;37428;53.580;-1.666;2022-11-03T07:31:59;16.95;;;4.80;;
33987;SDS011;37428;53.580;-1.666;2022-11-03T07:35:22;19.75;;;7.95;;
33987;SDS011;37428;53.580;-1.666;2022-11-03T07:38:29;27.17;;;6.15;;
33987;SDS011;37428;53.580;-1.666;2022-11-03T07:41:35;18.63;;;3.70;;
33987;SDS011;37428;53.580;-1.666;2022-11-03T07:44:37;31.42;;;8.55;;
33987;SDS011;37428;53.580;-1.666;2022-11-03T07:47:42;122.03;;;62.67;;
33987;SDS011;37428;53.580;-1.666;2022-11-03T07:50:45;77.97;;;36.33;;
33987;SDS011;37428;53.580;-1.666;2022-11-03T07:56:56;124.35;;;60.58;;
33987;SDS011;37428;53.580;-1.666;2022-11-03T08:00:00;153.80;;;88.32;;
33987;SDS011;37428;53.580;-1.666;2022-11-03T08:03:12;133.10;;;74.13;;
33987;SDS011;37428;53.580;-1.666;2022-11-03T08:06:31;72.10;;;39.45;;
33987;SDS011;37428;53.580;-1.666;2022-11-03T08:09:34;43.20;;;18.58;;
33987;SDS011;37428;53.580;-1.666;2022-11-03T08:12:38;21.73;;;10.25;;
33987;SDS011;37428;53.580;-1.666;2022-11-03T08:15:40;22.65;;;8.00;;
33987;SDS011;37428;53.580;-1.666;2022-11-03T08:18:44;14.95;;;3.85;;
33987;SDS011;37428;53.580;-1.666;2022-11-03T08:24:50;17.65;;;4.07;;
33987;SDS011;37428;53.580;-1.666;2022-11-03T08:27:54;14.40;;;2.88;;
33987;SDS011;37428;53.580;-1.666;2022-11-03T08:30:56;11.73;;;2.65;;
33987;SDS011;37428;53.580;-1.666;2022-11-03T08:34:03;19.70;;;3.33;;
33987;SDS011;37428;53.580;-1.666;2022-11-03T08:37:05;26.33;;;3.88;;
33987;SDS011;37428;53.580;-1.666;2022-11-03T08:40:08;17.58;;;3.10;;
33987;SDS011;37428;53.580;-1.666;2022-11-03T08:43:17;18.73;;;3.13;;
33987;SDS011;37428;53.580;-1.666;2022-11-03T08:46:19;18.13;;;4.25;;
33987;SDS011;37428;53.580;-1.666;2022-11-03T08:49:21;14.80;;;3.17;;
33987;SDS011;37428;53.580;-1.666;2022-11-03T08:52:23;17.15;;;3.25;;
33987;SDS011;37428;53.580;-1.666;2022-11-03T08:55:25;17.17;;;3.28;;
33987;SDS011;37428;53.580;-1.666;2022-11-03T08:58:29;20.50;;;3.95;;
33987;SDS011;37428;53.580;-1.666;2022-11-03T09:01:31;26.90;;;6.10;;
33987;SDS011;37428;53.580;-1.666;2022-11-03T09:04:33;10.20;;;3.17;;
33987;SDS011;37428;53.580;-1.666;2022-11-03T09:07:37;21.00;;;2.58;;
33987;SDS011;37428;53.580;-1.666;2022-11-03T09:10:44;15.68;;;2.42;;
33987;SDS011;37428;53.580;-1.666;2022-11-03T09:13:52;11.20;;;2.13;;
33987;SDS011;37428;53.580;-1.666;2022-11-03T09:16:54;17.40;;;3.28;;
33987;SDS011;37428;53.580;-1.666;2022-11-03T09:19:59;18.15;;;3.20;;
33987;SDS011;37428;53.580;-1.666;2022-11-03T09:23:03;22.48;;;4.90;;
33987;SDS011;37428;53.580;-1.666;2022-11-03T09:26:11;19.60;;;4.20;;
33987;SDS011;37428;53.580;-1.666;2022-11-03T09:29:14;17.70;;;3.42;;
33987;SDS011;37428;53.580;-1.666;2022-11-03T09:32:18;21.70;;;3.95;;
33987;SDS011;37428;53.580;-1.666;2022-11-03T09:35:21;26.00;;;4.43;;
33987;SDS011;37428;53.580;-1.666;2022-11-03T09:38:23;15.27;;;2.80;;
33987;SDS011;37428;53.580;-1.666;2022-11-03T09:41:26;17.05;;;3.60;;
33987;SDS011;37428;53.580;-1.666;2022-11-03T09:44:30;26.52;;;9.90;;
33987;SDS011;37428;53.580;-1.666;2022-11-03T09:47:39;26.50;;;8.60;;
33987;SDS011;37428;53.580;-1.666;2022-11-03T09:50:44;17.77;;;5.45;;
33987;SDS011;37428;53.580;-1.666;2022-11-03T09:53:49;18.10;;;4.07;;
33987;SDS011;37428;53.580;-1.666;2022-11-03T09:56:51;25.33;;;4.45;;
33987;SDS011;37428;53.580;-1.666;2022-11-03T09:59:55;14.45;;;3.72;;
33987;SDS011;37428;53.580;-1.666;2022-11-03T10:02:58;23.50;;;6.07;;
33987;SDS011;37428;53.580;-1.666;2022-11-03T10:06:00;20.85;;;4.95;;
33987;SDS011;37428;53.580;-1.666;2022-11-03T10:09:22;14.38;;;3.70;;
33987;SDS011;37428;53.580;-1.666;2022-11-03T10:12:29;20.58;;;4.00;;
33987;SDS011;37428;53.580;-1.666;2022-11-03T10:15:38;12.40;;;3.85;;
33987;SDS011;37428;53.580;-1.666;2022-11-03T10:18:48;19.33;;;4.32;;
33987;SDS011;37428;53.580;-1.666;2022-11-03T10:21:51;15.77;;;3.50;;
33987;SDS011;37428;53.580;-1.666;2022-11-03T10:28:58;20.00;;;3.35;;
33987;SDS011;37428;53.580;-1.666;2022-11-03T10:32:04;18.10;;;3.65;;
33987;SDS011;37428;53.580;-1.666;2022-11-03T10:35:33;14.43;;;3.78;;
33987;SDS011;37428;53.580;-1.666;2022-11-03T10:38:36;18.60;;;3.20;;
33987;SDS011;37428;53.580;-1.666;2022-11-03T10:41:38;22.25;;;3.45;;
33987;SDS011;37428;53.580;-1.666;2022-11-03T10:45:14;17.52;;;3.20;;
33987;SDS011;37428;53.580;-1.666;2022-11-03T10:48:21;15.60;;;2.95;;
33987;SDS011;37428;53.580;-1.666;2022-11-03T10:51:39;12.35;;;3.33;;
33987;SDS011;37428;53.580;-1.666;2022-11-03T10:54:49;14.10;;;2.55;;
33987;SDS011;37428;53.580;-1.666;2022-11-03T10:57:57;13.65;;;2.42;;
33987;SDS011;37428;53.580;-1.666;2022-11-03T11:00:59;11.07;;;2.00;;
33987;SDS011;37428;53.580;-1.666;2022-11-03T11:04:21;11.93;;;2.33;;
33987;SDS011;37428;53.580;-1.666;2022-11-03T11:07:39;15.63;;;3.17;;
33987;SDS011;37428;53.580;-1.666;2022-11-03T11:10:47;17.65;;;2.85;;
33987;SDS011;37428;53.580;-1.666;2022-11-03T11:17:40;14.85;;;2.50;;
33987;SDS011;37428;53.580;-1.666;2022-11-03T11:20:57;23.40;;;2.47;;
33987;SDS011;37428;53.580;-1.666;2022-11-03T11:27:56;15.13;;;2.67;;
33987;SDS011;37428;53.580;-1.666;2022-11-03T11:31:00;9.40;;;1.77;;
33987;SDS011;37428;53.580;-1.666;2022-11-03T11:37:48;12.13;;;1.90;;
33987;SDS011;37428;53.580;-1.666;2022-11-03T11:40:56;8.05;;;1.67;;
33987;SDS011;37428;53.580;-1.666;2022-11-03T11:47:48;13.13;;;2.03;;
33987;SDS011;37428;53.580;-1.666;2022-11-03T11:50:51;13.88;;;2.90;;
33987;SDS011;37428;53.580;-1.666;2022-11-03T11:53:55;10.18;;;2.33;;
33987;SDS011;37428;53.580;-1.666;2022-11-03T11:56:59;10.65;;;1.60;;
33987;SDS011;37428;53.580;-1.666;2022-11-03T12:00:03;8.60;;;1.67;;
33987;SDS011;37428;53.580;-1.666;2022-11-03T12:03:20;7.15;;;1.73;;
33987;SDS011;37428;53.580;-1.666;2022-11-03T12:06:39;5.32;;;1.55;;
33987;SDS011;37428;53.580;-1.666;2022-11-03T12:09:43;11.15;;;1.58;;
33987;SDS011;37428;53.580;-1.666;2022-11-03T12:12:46;7.55;;;2.15;;
33987;SDS011;37428;53.580;-1.666;2022-11-03T12:15:55;6.65;;;1.85;;
33987;SDS011;37428;53.580;-1.666;2022-11-03T12:22:40;8.90;;;2.05;;
33987;SDS011;37428;53.580;-1.666;2022-11-03T12:25:45;13.27;;;2.25;;
33987;SDS011;37428;53.580;-1.666;2022-11-03T12:28:49;11.43;;;2.00;;
33987;SDS011;37428;53.580;-1.666;2022-11-03T12:31:51;12.73;;;2.20;;
33987;SDS011;37428;53.580;-1.666;2022-11-03T12:34:53;8.63;;;1.95;;
33987;SDS011;37428;53.580;-1.666;2022-11-03T12:38:01;9.00;;;1.90;;
33987;SDS011;37428;53.580;-1.666;2022-11-03T12:41:07;9.73;;;2.67;;
33987;SDS011;37428;53.580;-1.666;2022-11-03T12:44:24;9.82;;;1.80;;
33987;SDS011;37428;53.580;-1.666;2022-11-03T12:47:28;11.63;;;1.50;;
33987;SDS011;37428;53.580;-1.666;2022-11-03T12:50:32;10.63;;;2.58;;
33987;SDS011;37428;53.580;-1.666;2022-11-03T12:53:36;8.60;;;2.08;;
33987;SDS011;37428;53.580;-1.666;2022-11-03T12:56:42;9.13;;;2.17;;
33987;SDS011;37428;53.580;-1.666;2022-11-03T12:59:45;6.22;;;1.55;;
33987;SDS011;37428;53.580;-1.666;2022-11-03T13:02:47;7.75;;;2.25;;
33987;SDS011;37428;53.580;-1.666;2022-11-03T13:05:50;9.88;;;2.53;;
33987;SDS011;37428;53.580;-1.666;2022-11-03T13:08:52;9.05;;;1.60;;
33987;SDS011;37428;53.580;-1.666;2022-11-03T13:11:56;16.27;;;3.80;;
33987;SDS011;37428;53.580;-1.666;2022-11-03T13:15:17;5.35;;;1.60;;
33987;SDS011;37428;53.580;-1.666;2022-11-03T13:18:19;11.02;;;2.15;;
33987;SDS011;37428;53.580;-1.666;2022-11-03T13:21:23;7.80;;;2.05;;
33987;SDS011;37428;53.580;-1.666;2022-11-03T13:24:25;7.22;;;1.88;;
33987;SDS011;37428;53.580;-1.666;2022-11-03T13:27:31;7.75;;;1.58;;
33987;SDS011;37428;53.580;-1.666;2022-11-03T13:30:33;9.70;;;1.52;;
33987;SDS011;37428;53.580;-1.666;2022-11-03T13:33:39;5.88;;;1.58;;
33987;SDS011;37428;53.580;-1.666;2022-11-03T13:36:41;13.70;;;2.38;;
33987;SDS011;37428;53.580;-1.666;2022-11-03T13:39:43;10.57;;;2.25;;
33987;SDS011;37428;53.580;-1.666;2022-11-03T13:42:51;7.60;;;1.67;;
33987;SDS011;37428;53.580;-1.666;2022-11-03T13:45:55;8.07;;;2.22;;
33987;SDS011;37428;53.580;-1.666;2022-11-03T13:49:01;11.23;;;2.22;;
33987;SDS011;37428;53.580;-1.666;2022-11-03T13:55:06;7.50;;;1.50;;
33987;SDS011;37428;53.580;-1.666;2022-11-03T13:58:23;9.10;;;2.03;;
33987;SDS011;37428;53.580;-1.666;2022-11-03T14:01:27;7.47;;;2.15;;
33987;SDS011;37428;53.580;-1.666;2022-11-03T14:04:29;8.50;;;1.75;;
33987;SDS011;37428;53.580;-1.666;2022-11-03T14:07:33;12.05;;;2.22;;
33987;SDS011;37428;53.580;-1.666;2022-11-03T14:10:35;8.98;;;1.80;;
33987;SDS011;37428;53.580;-1.666;2022-11-03T14:13:44;8.65;;;2.30;;
33987;SDS011;37428;53.580;-1.666;2022-11-03T14:16:46;7.72;;;1.60;;
33987;SDS011;37428;53.580;-1.666;2022-11-03T14:19:48;6.55;;;1.80;;
33987;SDS011;37428;53.580;-1.666;2022-11-03T14:22:51;11.98;;;2.70;;
33987;SDS011;37428;53.580;-1.666;2022-11-03T14:25:53;11.50;;;2.10;;
33987;SDS011;37428;53.580;-1.666;2022-11-03T14:28:56;9.70;;;2.33;;
33987;SDS011;37428;53.580;-1.666;2022-11-03T14:31:58;10.80;;;2.03;;
33987;SDS011;37428;53.580;-1.666;2022-11-03T14:35:01;9.05;;;2.13;;
33987;SDS011;37428;53.580;-1.666;2022-11-03T14:38:03;8.70;;;1.45;;
33987;SDS011;37428;53.580;-1.666;2022-11-03T14:41:05;5.95;;;1.27;;
33987;SDS011;37428;53.580;-1.666;2022-11-03T14:44:28;9.13;;;1.90;;
33987;SDS011;37428;53.580;-1.666;2022-11-03T14:47:31;6.40;;;1.45;;
33987;SDS011;37428;53.580;-1.666;2022-11-03T14:50:33;8.27;;;1.48;;
33987;SDS011;37428;53.580;-1.666;2022-11-03T14:53:50;9.18;;;1.58;;
33987;SDS011;37428;53.580;-1.666;2022-11-03T14:56:52;13.35;;;1.88;;
33987;SDS011;37428;53.580;-1.666;2022-11-03T14:59:58;4.15;;;1.25;;
33987;SDS011;37428;53.580;-1.666;2022-11-03T15:03:10;8.38;;;1.73;;
33987;SDS011;37428;53.580;-1.666;2022-11-03T15:06:12;9.73;;;2.53;;
33987;SDS011;37428;53.580;-1.666;2022-11-03T15:09:16;11.23;;;2.05;;
33987;SDS011;37428;53.580;-1.666;2022-11-03T15:12:32;7.47;;;1.67;;
33987;SDS011;37428;53.580;-1.666;2022-11-03T15:15:37;10.00;;;2.88;;
33987;SDS011;37428;53.580;-1.666;2022-11-03T15:18:40;10.80;;;3.38;;
33987;SDS011;37428;53.580;-1.666;2022-11-03T15:21:45;9.90;;;4.10;;
33987;SDS011;37428;53.580;-1.666;2022-11-03T15:24:49;12.35;;;3.67;;
33987;SDS011;37428;53.580;-1.666;2022-11-03T15:27:54;11.10;;;3.70;;
33987;SDS011;37428;53.580;-1.666;2022-11-03T15:31:00;16.52;;;5.05;;
33987;SDS011;37428;53.580;-1.666;2022-11-03T15:34:03;15.25;;;5.22;;
33987;SDS011;37428;53.580;-1.666;2022-11-03T15:37:05;14.43;;;4.75;;
33987;SDS011;37428;53.580;-1.666;2022-11-03T15:40:08;10.93;;;4.28;;
33987;SDS011;37428;53.580;-1.666;2022-11-03T15:43:12;13.68;;;3.80;;
33987;SDS011;37428;53.580;-1.666;2022-11-03T15:46:17;11.85;;;3.65;;
33987;SDS011;37428;53.580;-1.666;2022-11-03T15:49:21;11.18;;;3.15;;
33987;SDS011;37428;53.580;-1.666;2022-11-03T15:52:25;14.48;;;3.58;;
33987;SDS011;37428;53.580;-1.666;2022-11-03T15:55:29;9.93;;;2.80;;
33987;SDS011;37428;53.580;-1.666;2022-11-03T15:58:32;10.43;;;2.67;;
33987;SDS011;37428;53.580;-1.666;2022-11-03T16:01:38;17.55;;;2.65;;
33987;SDS011;37428;53.580;-1.666;2022-11-03T16:04:40;8.35;;;2.22;;
33987;SDS011;37428;53.580;-1.666;2022-11-03T16:07:44;9.48;;;2.10;;
33987;SDS011;37428;53.580;-1.666;2022-11-03T16:10:48;12.80;;;2.75;;
33987;SDS011;37428;53.580;-1.666;2022-11-03T16:13:51;11.10;;;2.65;;
33987;SDS011;37428;53.580;-1.666;2022-11-03T16:16:59;7.90;;;2.28;;
33987;SDS011;37428;53.580;-1.666;2022-11-03T16:20:03;10.35;;;2.53;;
33987;SDS011;37428;53.580;-1.666;2022-11-03T16:23:06;11.38;;;1.90;;
33987;SDS011;37428;53.580;-1.666;2022-11-03T16:26:12;13.57;;;2.30;;
33987;SDS011;37428;53.580;-1.666;2022-11-03T16:29:15;9.55;;;2.33;;
33987;SDS011;37428;53.580;-1.666;2022-11-03T16:32:23;8.55;;;2.55;;
33987;SDS011;37428;53.580;-1.666;2022-11-03T16:35:26;9.55;;;2.83;;
33987;SDS011;37428;53.580;-1.666;2022-11-03T16:38:29;14.15;;;3.65;;
33987;SDS011;37428;53.580;-1.666;2022-11-03T16:41:32;12.88;;;4.20;;
33987;SDS011;37428;53.580;-1.666;2022-11-03T16:44:53;17.08;;;5.85;;
33987;SDS011;37428;53.580;-1.666;2022-11-03T16:47:58;21.60;;;5.75;;
33987;SDS011;37428;53.580;-1.666;2022-11-03T16:51:02;18.33;;;6.65;;
33987;SDS011;37428;53.580;-1.666;2022-11-03T16:54:05;11.45;;;5.38;;
33987;SDS011;37428;53.580;-1.666;2022-11-03T16:57:07;20.08;;;5.68;;
33987;SDS011;37428;53.580;-1.666;2022-11-03T17:00:27;19.33;;;5.22;;
33987;SDS011;37428;53.580;-1.666;2022-11-03T17:03:30;17.88;;;5.68;;
33987;SDS011;37428;53.580;-1.666;2022-11-03T17:06:34;12.98;;;5.22;;
33987;SDS011;37428;53.580;-1.666;2022-11-03T17:09:40;18.98;;;5.80;;
33987;SDS011;37428;53.580;-1.666;2022-11-03T17:12:45;18.17;;;6.78;;
33987;SDS011;37428;53.580;-1.666;2022-11-03T17:15:47;19.08;;;6.03;;
33987;SDS011;37428;53.580;-1.666;2022-11-03T17:18:59;20.35;;;5.78;;
33987;SDS011;37428;53.580;-1.666;2022-11-03T17:22:03;20.83;;;7.55;;
33987;SDS011;37428;53.580;-1.666;2022-11-03T17:25:06;58.15;;;29.33;;
33987;SDS011;37428;53.580;-1.666;2022-11-03T17:28:10;63.10;;;35.67;;
33987;SDS011;37428;53.580;-1.666;2022-11-03T17:31:14;41.80;;;20.45;;
33987;SDS011;37428;53.580;-1.666;2022-11-03T17:34:20;21.05;;;11.55;;
33987;SDS011;37428;53.580;-1.666;2022-11-03T17:37:24;19.33;;;6.78;;
33987;SDS011;37428;53.580;-1.666;2022-11-03T17:40:27;14.20;;;5.35;;
33987;SDS011;37428;53.580;-1.666;2022-11-03T17:46:32;18.33;;;3.08;;
33987;SDS011;37428;53.580;-1.666;2022-11-03T17:49:36;12.18;;;3.33;;
33987;SDS011;37428;53.580;-1.666;2022-11-03T17:52:40;10.07;;;3.30;;
33987;SDS011;37428;53.580;-1.666;2022-11-03T17:55:44;11.38;;;3.38;;
33987;SDS011;37428;53.580;-1.666;2022-11-03T17:58:46;15.98;;;4.00;;
33987;SDS011;37428;53.580;-1.666;2022-11-03T18:01:49;12.88;;;3.92;;
33987;SDS011;37428;53.580;-1.666;2022-11-03T18:08:15;13.97;;;3.70;;
33987;SDS011;37428;53.580;-1.666;2022-11-03T18:11:18;13.98;;;3.97;;
33987;SDS011;37428;53.580;-1.666;2022-11-03T18:14:42;15.60;;;3.45;;
33987;SDS011;37428;53.580;-1.666;2022-11-03T18:17:44;11.60;;;4.88;;
33987;SDS011;37428;53.580;-1.666;2022-11-03T18:23:51;16.77;;;5.35;;
33987;SDS011;37428;53.580;-1.666;2022-11-03T18:26:54;17.20;;;5.20;;
33987;SDS011;37428;53.580;-1.666;2022-11-03T18:29:58;16.90;;;5.85;;
33987;SDS011;37428;53.580;-1.666;2022-11-03T18:33:00;19.88;;;6.18;;
33987;SDS011;37428;53.580;-1.666;2022-11-03T18:36:05;12.48;;;5.13;;
33987;SDS011;37428;53.580;-1.666;2022-11-03T18:39:11;14.25;;;4.53;;
33987;SDS011;37428;53.580;-1.666;2022-11-03T18:42:17;20.25;;;5.03;;
33987;SDS011;37428;53.580;-1.666;2022-11-03T18:45:21;18.70;;;5.32;;
33987;SDS011;37428;53.580;-1.666;2022-11-03T18:48:25;10.68;;;4.90;;
33987;SDS011;37428;53.580;-1.666;2022-11-03T18:51:28;16.13;;;5.53;;
33987;SDS011;37428;53.580;-1.666;2022-11-03T18:54:31;19.15;;;7.32;;
33987;SDS011;37428;53.580;-1.666;2022-11-03T18:57:36;17.42;;;7.43;;
33987;SDS011;37428;53.580;-1.666;2022-11-03T19:00:39;28.33;;;12.63;;
33987;SDS011;37428;53.580;-1.666;2022-11-03T19:03:45;19.02;;;10.88;;
33987;SDS011;37428;53.580;-1.666;2022-11-03T19:06:49;23.40;;;11.98;;